Time,TemperatureF,DewpointF,PressureIn,WindDirection,WindDirectionDegrees,WindSpeedMPH,WindSpeedGustMPH,Humidity,HourlyPrecipIn,Conditions,Clouds,dailyrainin,SoftwareType,DateUTC
2013-03-31 00:02:00,64.9,60.6,30.07,SSW,192,0.0,3.0,86,0.00,,,0.00,meteohub,2013-03-31 05:02:00,
2013-03-31 00:17:00,64.6,60.3,30.07,South,174,3.0,3.0,86,0.00,,,0.00,meteohub,2013-03-31 05:17:00,
2013-03-31 00:32:00,64.6,60.6,30.07,SSE,158,2.0,3.0,87,0.00,,,0.00,meteohub,2013-03-31 05:32:00,
2013-03-31 00:47:00,64.8,60.8,30.07,South,169,1.0,5.0,87,0.00,,,0.00,meteohub,2013-03-31 05:47:00,
2013-03-31 01:17:00,64.8,60.8,30.05,SSE,155,3.0,6.0,87,0.00,,,0.00,meteohub,2013-03-31 06:17:00,
2013-03-31 01:32:00,64.8,61.2,30.05,South,181,2.0,7.0,88,0.00,,,0.00,meteohub,2013-03-31 06:32:00,
2013-03-31 01:47:00,64.4,61.2,30.04,South,175,1.0,4.0,89,0.00,,,0.00,meteohub,2013-03-31 06:47:00,
2013-03-31 02:02:00,64.8,61.5,30.04,South,188,4.0,5.0,89,0.00,,,0.00,meteohub,2013-03-31 07:02:00,
2013-03-31 02:17:00,64.9,61.7,30.04,South,181,3.0,8.0,89,0.00,,,0.00,meteohub,2013-03-31 07:17:00,
2013-03-31 02:32:00,64.8,61.5,30.04,SSE,164,1.0,4.0,89,0.00,,,0.00,meteohub,2013-03-31 07:32:00,
2013-03-31 02:47:00,64.6,61.5,30.04,South,177,1.0,4.0,90,0.00,,,0.00,meteohub,2013-03-31 07:47:00,
2013-03-31 03:02:00,64.6,61.9,30.03,South,191,1.0,4.0,91,0.00,,,0.00,meteohub,2013-03-31 08:02:00,
2013-03-31 03:17:00,64.6,61.9,30.03,South,189,0.0,4.0,91,0.00,,,0.00,meteohub,2013-03-31 08:17:00,
2013-03-31 03:32:00,64.2,61.9,30.02,South,189,1.0,2.0,92,0.00,,,0.00,meteohub,2013-03-31 08:32:00,
2013-03-31 03:47:00,64.0,61.7,30.02,South,189,1.0,2.0,92,0.00,,,0.00,meteohub,2013-03-31 08:47:00,
2013-03-31 04:02:00,63.9,61.9,30.01,South,177,4.0,4.0,93,0.00,,,0.00,meteohub,2013-03-31 09:02:00,
2013-03-31 04:17:00,63.9,61.9,30.01,South,177,1.0,5.0,93,0.00,,,0.00,meteohub,2013-03-31 09:17:00,
2013-03-31 04:32:00,63.9,61.9,30.01,South,177,2.0,3.0,93,0.00,,,0.00,meteohub,2013-03-31 09:32:00,
2013-03-31 04:47:00,63.9,61.9,30.01,South,177,1.0,5.0,93,0.00,,,0.00,meteohub,2013-03-31 09:47:00,
2013-03-31 05:02:00,63.3,61.3,30.01,South,177,2.0,3.0,93,0.00,,,0.00,meteohub,2013-03-31 10:02:00,
2013-03-31 05:17:00,63.3,61.5,30.00,South,177,1.0,2.0,94,0.00,,,0.00,meteohub,2013-03-31 10:17:00,
2013-03-31 05:32:00,63.1,61.3,30.00,South,179,1.0,3.0,94,0.00,,,0.00,meteohub,2013-03-31 10:32:00,
2013-03-31 05:47:00,63.3,61.3,30.00,South,180,2.0,6.0,93,0.00,,,0.00,meteohub,2013-03-31 10:47:00,
2013-03-31 06:02:00,62.8,61.0,30.00,South,180,2.0,3.0,94,0.00,,,0.00,meteohub,2013-03-31 11:02:00,
2013-03-31 06:32:00,62.2,60.4,30.02,South,178,2.0,3.0,94,0.00,,,0.00,meteohub,2013-03-31 11:32:00,
2013-03-31 06:47:00,62.2,60.8,30.02,South,178,0.0,3.0,95,0.00,,,0.00,meteohub,2013-03-31 11:47:00,
2013-03-31 07:02:00,62.2,60.8,30.02,South,178,0.0,2.0,95,0.00,,,0.00,meteohub,2013-03-31 12:02:00,
2013-03-31 07:17:00,62.4,61.0,30.02,South,178,0.0,1.0,95,0.00,,,0.00,meteohub,2013-03-31 12:17:00,
2013-03-31 07:32:00,62.4,61.0,30.02,South,178,0.0,2.0,95,0.00,,,0.00,meteohub,2013-03-31 12:32:00,
2013-03-31 07:47:00,63.1,62.1,30.03,South,178,0.0,1.0,96,0.00,,,0.00,meteohub,2013-03-31 12:47:00,
2013-03-31 08:02:00,63.3,62.2,30.03,South,178,1.0,2.0,96,0.00,,,0.00,meteohub,2013-03-31 13:02:00,
2013-03-31 08:17:00,64.2,62.8,30.03,South,178,2.0,4.0,95,0.00,,,0.00,meteohub,2013-03-31 13:17:00,
2013-03-31 08:32:00,64.8,63.0,30.03,South,178,1.0,4.0,94,0.00,,,0.00,meteohub,2013-03-31 13:32:00,
2013-03-31 08:47:00,64.9,63.1,30.04,South,190,0.0,4.0,94,0.00,,,0.00,meteohub,2013-03-31 13:47:00,
2013-03-31 09:02:00,65.1,63.0,30.03,South,190,0.0,1.0,93,0.00,,,0.00,meteohub,2013-03-31 14:02:00,
2013-03-31 09:17:00,65.7,63.5,30.03,South,190,0.0,1.0,93,0.00,,,0.00,meteohub,2013-03-31 14:17:00,
2013-03-31 09:32:00,65.7,63.3,30.03,South,190,2.0,2.0,92,0.00,,,0.00,meteohub,2013-03-31 14:32:00,
2013-03-31 09:47:00,65.3,63.1,30.03,SSW,199,1.0,4.0,93,0.00,,,0.00,meteohub,2013-03-31 14:47:00,
2013-03-31 10:02:00,65.5,63.3,30.03,SSW,199,1.0,3.0,93,0.00,,,0.00,meteohub,2013-03-31 15:02:00,
2013-03-31 10:17:00,65.7,63.5,30.02,SSW,199,1.0,2.0,93,0.00,,,0.00,meteohub,2013-03-31 15:17:00,
2013-03-31 10:32:00,66.4,64.0,30.02,SSW,196,3.0,6.0,92,0.00,,,0.00,meteohub,2013-03-31 15:32:00,
2013-03-31 10:47:00,66.9,64.2,30.02,SSW,196,3.0,5.0,91,0.00,,,0.00,meteohub,2013-03-31 15:47:00,
2013-03-31 11:02:00,67.1,64.4,30.02,SSW,200,3.0,5.0,91,0.00,,,0.00,meteohub,2013-03-31 16:02:00,
2013-03-31 11:17:00,68.2,64.4,30.02,SSW,194,2.0,5.0,88,0.00,,,0.00,meteohub,2013-03-31 16:17:00,
2013-03-31 11:32:00,68.4,64.6,30.01,SSW,196,4.0,6.0,88,0.00,,,0.00,meteohub,2013-03-31 16:32:00,
2013-03-31 11:47:00,69.1,64.0,30.01,SSW,200,6.0,8.0,84,0.00,,,0.00,meteohub,2013-03-31 16:47:00,
2013-03-31 12:02:00,68.5,64.8,30.01,SSW,200,4.0,8.0,88,0.00,,,0.00,meteohub,2013-03-31 17:02:00,
2013-03-31 12:17:00,69.1,65.7,30.01,South,186,2.0,6.0,89,0.00,,,0.00,meteohub,2013-03-31 17:17:00,
2013-03-31 12:32:00,69.3,65.5,30.00,South,190,5.0,7.0,88,0.00,,,0.00,meteohub,2013-03-31 17:32:00,
2013-03-31 12:47:00,70.0,65.7,30.00,South,176,10.0,11.0,86,0.00,,,0.00,meteohub,2013-03-31 17:47:00,
2013-03-31 13:02:00,70.2,64.8,29.99,South,188,7.0,11.0,83,0.00,,,0.00,meteohub,2013-03-31 18:02:00,
2013-03-31 13:17:00,70.5,64.4,29.99,SSW,193,9.0,13.0,81,0.00,,,0.00,meteohub,2013-03-31 18:17:00,
2013-03-31 13:32:00,70.9,64.4,29.98,SSW,210,9.0,16.0,80,0.00,,,0.00,meteohub,2013-03-31 18:32:00,
2013-03-31 13:47:00,71.1,64.6,29.98,SSW,193,9.0,16.0,80,0.00,,,0.00,meteohub,2013-03-31 18:47:00,
2013-03-31 14:02:00,71.1,64.6,29.97,South,177,10.0,17.0,80,0.00,,,0.00,meteohub,2013-03-31 19:02:00,
2013-03-31 14:17:00,70.3,65.3,29.97,South,183,9.0,15.0,84,0.00,,,0.00,meteohub,2013-03-31 19:17:00,
2013-03-31 14:32:00,69.6,65.3,29.97,SSW,206,8.0,15.0,86,0.00,,,0.00,meteohub,2013-03-31 19:32:00,
2013-03-31 14:47:00,69.6,65.7,29.97,SSW,200,8.0,15.0,87,0.00,,,0.00,meteohub,2013-03-31 19:47:00,
2013-03-31 15:02:00,69.4,65.7,29.96,South,187,11.0,16.0,88,0.00,,,0.00,meteohub,2013-03-31 20:02:00,
2013-03-31 15:17:00,69.3,65.5,29.96,South,188,9.0,16.0,88,0.00,,,0.00,meteohub,2013-03-31 20:17:00,
2013-03-31 15:32:00,69.8,65.5,29.96,South,178,9.0,15.0,86,0.00,,,0.00,meteohub,2013-03-31 20:32:00,
2013-03-31 15:47:00,69.8,65.1,29.95,SSW,209,9.0,15.0,85,0.00,,,0.00,meteohub,2013-03-31 20:47:00,
2013-03-31 16:02:00,70.0,65.3,29.94,South,183,11.0,14.0,85,0.00,,,0.00,meteohub,2013-03-31 21:02:00,
2013-03-31 16:17:00,70.3,65.7,29.94,South,185,11.0,14.0,85,0.00,,,0.00,meteohub,2013-03-31 21:17:00,
2013-03-31 16:32:00,70.2,65.1,29.93,South,184,8.0,14.0,84,0.00,,,0.00,meteohub,2013-03-31 21:32:00,
2013-03-31 16:47:00,70.0,64.9,29.91,South,181,10.0,13.0,84,0.00,,,0.00,meteohub,2013-03-31 21:47:00,
2013-03-31 17:02:00,69.4,64.8,29.91,South,182,11.0,13.0,85,0.00,,,0.00,meteohub,2013-03-31 22:02:00,
2013-03-31 17:17:00,69.3,64.6,29.91,SSW,192,9.0,16.0,85,0.00,,,0.00,meteohub,2013-03-31 22:17:00,
2013-03-31 17:32:00,68.7,64.8,29.92,South,178,9.0,15.0,87,0.00,,,0.00,meteohub,2013-03-31 22:32:00,
2013-03-31 17:47:00,68.4,64.6,29.92,South,175,8.0,14.0,88,0.00,,,0.00,meteohub,2013-03-31 22:47:00,
2013-03-31 18:02:00,68.2,64.4,29.92,SSW,192,4.0,14.0,88,0.00,,,0.00,meteohub,2013-03-31 23:02:00,
2013-03-31 18:17:00,68.2,64.8,29.93,South,183,6.0,14.0,89,0.00,,,0.00,meteohub,2013-03-31 23:17:00,
2013-03-31 18:32:00,68.2,64.8,29.94,South,190,4.0,13.0,89,0.00,,,0.00,meteohub,2013-03-31 23:32:00,
2013-03-31 18:47:00,68.0,64.6,29.94,SSW,193,8.0,11.0,89,0.00,,,0.00,meteohub,2013-03-31 23:47:00,
2013-03-31 19:02:00,67.6,64.9,29.94,South,171,8.0,11.0,91,0.00,,,0.00,meteohub,2013-04-01 00:02:00,
2013-03-31 19:17:00,67.5,64.8,29.94,SSW,193,6.0,11.0,91,0.00,,,0.00,meteohub,2013-04-01 00:17:00,
2013-03-31 19:32:00,67.3,64.9,29.94,South,184,6.0,12.0,92,0.00,,,0.00,meteohub,2013-04-01 00:32:00,
2013-03-31 19:47:00,66.9,64.6,29.96,SW,217,10.0,11.0,92,0.00,,,0.00,meteohub,2013-04-01 00:47:00,
2013-03-31 20:02:00,64.8,62.4,29.97,WNW,300,8.0,18.0,92,0.04,,,0.04,meteohub,2013-04-01 01:02:00,
2013-03-31 20:17:00,63.7,61.7,29.95,WSW,248,3.0,14.0,93,0.07,,,0.07,meteohub,2013-04-01 01:17:00,
2013-03-31 20:32:00,63.7,61.9,29.94,WSW,242,0.0,4.0,94,0.08,,,0.08,meteohub,2013-04-01 01:32:00,
2013-03-31 21:02:00,62.8,61.3,29.90,ESE,121,2.0,5.0,95,0.05,,,0.09,meteohub,2013-04-01 02:02:00,
2013-03-31 21:17:00,62.4,60.6,29.92,SSE,148,0.0,5.0,94,0.02,,,0.09,meteohub,2013-04-01 02:17:00,
2013-03-31 21:47:00,62.2,60.8,29.92,East,98,1.0,3.0,95,0.00,,,0.09,meteohub,2013-04-01 02:47:00,
2013-03-31 22:02:00,62.1,60.6,29.91,East,98,2.0,2.0,95,0.00,,,0.09,meteohub,2013-04-01 03:02:00,
2013-03-31 22:17:00,62.1,60.6,29.92,East,98,0.0,3.0,95,0.00,,,0.09,meteohub,2013-04-01 03:17:00,
2013-03-31 22:32:00,62.1,60.6,29.92,East,98,1.0,2.0,95,0.00,,,0.09,meteohub,2013-04-01 03:32:00,
2013-03-31 22:47:00,62.1,60.6,29.92,East,98,0.0,2.0,95,0.00,,,0.09,meteohub,2013-04-01 03:47:00,
2013-03-31 23:02:00,62.1,60.6,29.91,East,98,2.0,2.0,95,0.00,,,0.09,meteohub,2013-04-01 04:02:00,
2013-03-31 23:17:00,62.1,61.0,29.91,SE,125,2.0,3.0,96,0.00,,,0.09,meteohub,2013-04-01 04:17:00,
2013-03-31 23:32:00,62.8,61.7,29.91,SE,125,2.0,3.0,96,0.00,,,0.09,meteohub,2013-04-01 04:32:00,
2013-03-31 23:47:00,63.3,62.2,29.91,SE,125,1.0,3.0,96,0.00,,,0.09,meteohub,2013-04-01 04:47:00,